sensor_id;sensor_type;location;lat;lon;timestamp;pressure;altitude;pressure_sealevel;temperature;humidity
56040;BME280;43937;41.366;2.072;2023-05-07T00:01:45;100740.75;;;21.56;53.90
56040;BME280;43937;41.366;2.072;2023-05-07T00:05:47;100745.56;;;21.60;54.75
56040;BME280;43937;41.366;2.072;2023-05-07T00:08:13;100738.94;;;21.61;55.40
56040;BME280;43937;41.366;2.072;2023-05-07T00:10:38;100752.31;;;21.53;56.92
56040;BME280;43937;41.366;2.072;2023-05-07T00:13:04;100743.06;;;21.70;56.83
56040;BME280;43937;41.366;2.072;2023-05-07T00:15:30;100741.94;;;21.60;57.93
56040;BME280;43937;41.366;2.072;2023-05-07T00:17:55;100747.38;;;21.78;58.00
56040;BME280;43937;41.366;2.072;2023-05-07T00:20:21;100740.41;;;21.76;58.58
56040;BME280;43937;41.366;2.072;2023-05-07T00:22:46;100742.31;;;21.75;59.50
56040;BME280;43937;41.366;2.072;2023-05-07T00:25:11;100703.78;;;21.50;59.48
56040;BME280;43937;41.366;2.072;2023-05-07T00:27:37;100744.97;;;21.58;60.71
56040;BME280;43937;41.366;2.072;2023-05-07T00:30:03;100726.75;;;21.39;61.58
56040;BME280;43937;41.366;2.072;2023-05-07T00:32:28;100731.59;;;21.55;61.14
56040;BME280;43937;41.366;2.072;2023-05-07T00:34:54;100758.66;;;21.41;62.52
56040;BME280;43937;41.366;2.072;2023-05-07T00:37:19;100770.50;;;21.18;63.90
56040;BME280;43937;41.366;2.072;2023-05-07T00:39:45;100787.91;;;21.37;64.48
56040;BME280;43937;41.366;2.072;2023-05-07T00:42:10;100811.34;;;21.35;65.30
56040;BME280;43937;41.366;2.072;2023-05-07T00:44:35;100809.63;;;21.52;65.68
56040;BME280;43937;41.366;2.072;2023-05-07T00:47:02;100812.50;;;21.57;65.84
56040;BME280;43937;41.366;2.072;2023-05-07T00:49:41;100814.38;;;21.33;70.82
56040;BME280;43937;41.366;2.072;2023-05-07T00:52:12;100805.63;;;21.36;71.03
56040;BME280;43937;41.366;2.072;2023-05-07T00:56:50;100819.41;;;21.55;70.71
56040;BME280;43937;41.366;2.072;2023-05-07T00:59:16;100817.09;;;21.52;65.72
56040;BME280;43937;41.366;2.072;2023-05-07T01:01:42;100818.41;;;21.49;64.22
56040;BME280;43937;41.366;2.072;2023-05-07T01:04:07;100820.81;;;21.57;63.98
56040;BME280;43937;41.366;2.072;2023-05-07T01:06:33;100816.50;;;21.61;63.69
56040;BME280;43937;41.366;2.072;2023-05-07T01:08:59;100826.97;;;21.59;64.31
56040;BME280;43937;41.366;2.072;2023-05-07T01:11:25;100802.16;;;21.53;64.11
56040;BME280;43937;41.366;2.072;2023-05-07T01:13:51;100829.63;;;21.66;64.78
56040;BME280;43937;41.366;2.072;2023-05-07T01:16:17;100813.72;;;21.49;64.43
56040;BME280;43937;41.366;2.072;2023-05-07T01:18:51;100820.50;;;21.35;64.55
56040;BME280;43937;41.366;2.072;2023-05-07T01:21:18;100830.38;;;21.31;63.67
56040;BME280;43937;41.366;2.072;2023-05-07T01:23:44;100840.66;;;21.42;63.97
56040;BME280;43937;41.366;2.072;2023-05-07T01:26:10;100853.28;;;21.38;63.76
56040;BME280;43937;41.366;2.072;2023-05-07T01:28:35;100852.50;;;21.31;62.91
56040;BME280;43937;41.366;2.072;2023-05-07T01:31:03;100851.41;;;21.02;62.11
56040;BME280;43937;41.366;2.072;2023-05-07T01:33:32;100840.28;;;20.90;61.92
56040;BME280;43937;41.366;2.072;2023-05-07T01:35:58;100852.28;;;20.84;62.67
56040;BME280;43937;41.366;2.072;2023-05-07T01:38:27;100853.66;;;20.93;62.67
56040;BME280;43937;41.366;2.072;2023-05-07T01:40:53;100843.97;;;20.84;63.42
56040;BME280;43937;41.366;2.072;2023-05-07T01:43:19;100831.75;;;20.92;63.29
56040;BME280;43937;41.366;2.072;2023-05-07T01:45:45;100827.81;;;20.99;62.78
56040;BME280;43937;41.366;2.072;2023-05-07T01:48:11;100832.13;;;20.95;62.44
56040;BME280;43937;41.366;2.072;2023-05-07T01:50:38;100843.41;;;21.12;62.61
56040;BME280;43937;41.366;2.072;2023-05-07T01:53:04;100849.97;;;21.30;62.09
56040;BME280;43937;41.366;2.072;2023-05-07T01:55:29;100845.41;;;21.35;61.90
56040;BME280;43937;41.366;2.072;2023-05-07T01:57:55;100833.81;;;20.96;63.45
56040;BME280;43937;41.366;2.072;2023-05-07T02:00:20;100846.78;;;21.14;63.02
56040;BME280;43937;41.366;2.072;2023-05-07T02:02:46;100845.47;;;21.17;62.67
56040;BME280;43937;41.366;2.072;2023-05-07T02:05:12;100831.00;;;21.15;62.19
56040;BME280;43937;41.366;2.072;2023-05-07T02:07:37;100837.88;;;21.12;61.57
56040;BME280;43937;41.366;2.072;2023-05-07T02:10:03;100844.09;;;21.08;61.80
56040;BME280;43937;41.366;2.072;2023-05-07T02:12:28;100840.97;;;21.04;60.85
56040;BME280;43937;41.366;2.072;2023-05-07T02:14:54;100851.28;;;21.27;59.75
56040;BME280;43937;41.366;2.072;2023-05-07T02:17:19;100846.81;;;21.26;59.39
56040;BME280;43937;41.366;2.072;2023-05-07T02:19:45;100824.78;;;21.19;59.17
56040;BME280;43937;41.366;2.072;2023-05-07T02:22:10;100835.75;;;21.26;58.86
56040;BME280;43937;41.366;2.072;2023-05-07T02:24:36;100828.44;;;21.01;58.94
56040;BME280;43937;41.366;2.072;2023-05-07T02:27:01;100839.19;;;21.10;58.64
56040;BME280;43937;41.366;2.072;2023-05-07T02:29:28;100837.78;;;21.19;58.26
56040;BME280;43937;41.366;2.072;2023-05-07T02:31:53;100843.78;;;21.16;58.12
56040;BME280;43937;41.366;2.072;2023-05-07T02:34:19;100850.81;;;21.00;58.44
56040;BME280;43937;41.366;2.072;2023-05-07T02:36:45;100850.47;;;21.08;58.15
56040;BME280;43937;41.366;2.072;2023-05-07T02:39:11;100861.19;;;21.04;57.92
56040;BME280;43937;41.366;2.072;2023-05-07T02:41:37;100850.81;;;21.00;58.43
56040;BME280;43937;41.366;2.072;2023-05-07T02:44:03;100843.34;;;21.00;58.29
56040;BME280;43937;41.366;2.072;2023-05-07T02:46:28;100854.56;;;21.05;58.82
56040;BME280;43937;41.366;2.072;2023-05-07T02:48:54;100859.97;;;21.00;59.54
56040;BME280;43937;41.366;2.072;2023-05-07T02:51:21;100832.75;;;20.97;59.36
56040;BME280;43937;41.366;2.072;2023-05-07T02:53:46;100845.97;;;20.95;59.71
56040;BME280;43937;41.366;2.072;2023-05-07T02:56:12;100867.59;;;21.17;58.39
56040;BME280;43937;41.366;2.072;2023-05-07T02:58:37;100857.00;;;21.14;58.05
56040;BME280;43937;41.366;2.072;2023-05-07T03:01:07;100863.25;;;21.09;58.31
56040;BME280;43937;41.366;2.072;2023-05-07T03:04:20;100852.28;;;20.84;58.65
56040;BME280;43937;41.366;2.072;2023-05-07T03:06:46;100843.59;;;20.80;58.64
56040;BME280;43937;41.366;2.072;2023-05-07T03:09:11;100846.63;;;20.79;58.52
56040;BME280;43937;41.366;2.072;2023-05-07T03:11:37;100847.66;;;20.96;58.14
56040;BME280;43937;41.366;2.072;2023-05-07T03:14:02;100850.28;;;20.91;58.45
56040;BME280;43937;41.366;2.072;2023-05-07T03:16:28;100844.53;;;20.74;59.46
56040;BME280;43937;41.366;2.072;2023-05-07T03:18:53;100830.22;;;20.77;59.16
56040;BME280;43937;41.366;2.072;2023-05-07T03:21:19;100809.78;;;20.78;59.35
56040;BME280;43937;41.366;2.072;2023-05-07T03:23:44;100795.94;;;20.78;59.83
56040;BME280;43937;41.366;2.072;2023-05-07T03:26:10;100783.84;;;20.61;60.96
56040;BME280;43937;41.366;2.072;2023-05-07T03:28:36;100779.91;;;20.50;64.91
56040;BME280;43937;41.366;2.072;2023-05-07T03:31:01;100769.84;;;20.38;66.81
56040;BME280;43937;41.366;2.072;2023-05-07T03:33:27;100774.44;;;20.44;67.38
56040;BME280;43937;41.366;2.072;2023-05-07T03:35:52;100769.66;;;20.57;67.00
56040;BME280;43937;41.366;2.072;2023-05-07T03:38:18;100775.19;;;20.57;67.03
56040;BME280;43937;41.366;2.072;2023-05-07T03:40:43;100772.06;;;20.47;67.08
56040;BME280;43937;41.366;2.072;2023-05-07T03:43:09;100780.25;;;20.61;66.81
56040;BME280;43937;41.366;2.072;2023-05-07T03:45:35;100751.88;;;20.47;66.47
56040;BME280;43937;41.366;2.072;2023-05-07T03:48:00;100755.56;;;20.59;65.12
56040;BME280;43937;41.366;2.072;2023-05-07T03:50:26;100760.38;;;20.45;66.57
56040;BME280;43937;41.366;2.072;2023-05-07T03:52:51;100763.13;;;20.52;66.30
56040;BME280;43937;41.366;2.072;2023-05-07T03:55:16;100768.09;;;20.43;66.81
56040;BME280;43937;41.366;2.072;2023-05-07T03:57:42;100772.44;;;20.51;66.93
56040;BME280;43937;41.366;2.072;2023-05-07T04:00:08;100769.66;;;20.57;66.97
56040;BME280;43937;41.366;2.072;2023-05-07T04:02:34;100772.78;;;20.43;67.70
56040;BME280;43937;41.366;2.072;2023-05-07T04:04:59;100787.34;;;20.31;68.99
56040;BME280;43937;41.366;2.072;2023-05-07T04:07:53;100781.09;;;20.61;69.03
56040;BME280;43937;41.366;2.072;2023-05-07T04:10:18;100784.81;;;20.48;69.33
56040;BME280;43937;41.366;2.072;2023-05-07T04:12:43;100772.91;;;20.48;69.62
56040;BME280;43937;41.366;2.072;2023-05-07T04:15:09;100768.00;;;20.13;70.63
56040;BME280;43937;41.366;2.072;2023-05-07T04:17:35;100775.53;;;20.24;70.53
56040;BME280;43937;41.366;2.072;2023-05-07T04:20:00;100777.31;;;20.19;70.50
56040;BME280;43937;41.366;2.072;2023-05-07T04:22:26;100789.94;;;20.08;70.20
56040;BME280;43937;41.366;2.072;2023-05-07T04:24:51;100797.56;;;20.12;69.34
56040;BME280;43937;41.366;2.072;2023-05-07T04:27:17;100805.03;;;20.30;68.39
56040;BME280;43937;41.366;2.072;2023-05-07T04:29:42;100797.69;;;20.18;66.16
56040;BME280;43937;41.366;2.072;2023-05-07T04:32:12;100815.19;;;20.11;63.55
56040;BME280;43937;41.366;2.072;2023-05-07T04:34:37;100811.50;;;19.99;62.89
56040;BME280;43937;41.366;2.072;2023-05-07T04:37:03;100825.16;;;19.94;62.91
56040;BME280;43937;41.366;2.072;2023-05-07T04:39:28;100821.19;;;19.83;63.06
56040;BME280;43937;41.366;2.072;2023-05-07T04:41:54;100828.41;;;20.09;62.27
56040;BME280;43937;41.366;2.072;2023-05-07T04:46:03;100833.69;;;20.11;61.60
56040;BME280;43937;41.366;2.072;2023-05-07T04:48:28;100823.28;;;20.13;61.80
56040;BME280;43937;41.366;2.072;2023-05-07T04:50:54;100838.94;;;20.19;62.23
56040;BME280;43937;41.366;2.072;2023-05-07T04:53:20;100838.88;;;20.44;61.31
56040;BME280;43937;41.366;2.072;2023-05-07T04:55:46;100828.41;;;20.53;60.80
56040;BME280;43937;41.366;2.072;2023-05-07T04:58:12;100845.69;;;20.67;60.37
56040;BME280;43937;41.366;2.072;2023-05-07T05:00:38;100825.69;;;20.46;60.29
56040;BME280;43937;41.366;2.072;2023-05-07T05:03:05;100845.25;;;20.70;59.58
56040;BME280;43937;41.366;2.072;2023-05-07T05:05:31;100847.59;;;20.66;59.39
56040;BME280;43937;41.366;2.072;2023-05-07T05:07:56;100855.97;;;20.59;59.44
56040;BME280;43937;41.366;2.072;2023-05-07T05:10:22;100855.59;;;20.74;58.89
56040;BME280;43937;41.366;2.072;2023-05-07T05:12:47;100854.00;;;20.85;59.23
56040;BME280;43937;41.366;2.072;2023-05-07T05:15:13;100840.13;;;21.03;59.20
56040;BME280;43937;41.366;2.072;2023-05-07T05:17:38;100872.09;;;21.48;57.81
56040;BME280;43937;41.366;2.072;2023-05-07T05:20:05;100865.53;;;21.61;56.86
56040;BME280;43937;41.366;2.072;2023-05-07T05:22:31;100885.72;;;21.91;56.12
56040;BME280;43937;41.366;2.072;2023-05-07T05:24:57;100880.84;;;21.75;55.28
56040;BME280;43937;41.366;2.072;2023-05-07T05:27:22;100883.50;;;23.68;50.46
56040;BME280;43937;41.366;2.072;2023-05-07T05:29:48;100853.06;;;25.29;45.92
56040;BME280;43937;41.366;2.072;2023-05-07T05:32:13;100905.19;;;26.89;41.87
56040;BME280;43937;41.366;2.072;2023-05-07T05:34:39;100894.69;;;26.59;42.92
56040;BME280;43937;41.366;2.072;2023-05-07T05:37:04;100886.13;;;24.98;44.50
56040;BME280;43937;41.366;2.072;2023-05-07T05:39:30;100888.34;;;23.90;47.11
56040;BME280;43937;41.366;2.072;2023-05-07T05:41:55;100891.53;;;23.36;48.57
56040;BME280;43937;41.366;2.072;2023-05-07T05:44:21;100894.56;;;22.94;50.12
56040;BME280;43937;41.366;2.072;2023-05-07T05:46:46;100903.72;;;22.95;49.78
56040;BME280;43937;41.366;2.072;2023-05-07T05:49:12;100917.84;;;22.81;50.71
56040;BME280;43937;41.366;2.072;2023-05-07T05:51:38;100915.88;;;22.94;50.26
56040;BME280;43937;41.366;2.072;2023-05-07T05:54:03;100935.72;;;23.66;48.93
56040;BME280;43937;41.366;2.072;2023-05-07T05:56:29;100930.22;;;25.50;44.90
56040;BME280;43937;41.366;2.072;2023-05-07T05:58:55;100929.81;;;26.18;42.86
56040;BME280;43937;41.366;2.072;2023-05-07T06:01:20;100921.22;;;26.62;41.60
56040;BME280;43937;41.366;2.072;2023-05-07T06:03:46;100923.34;;;26.12;43.04
56040;BME280;43937;41.366;2.072;2023-05-07T06:06:11;100911.44;;;26.22;42.53
56040;BME280;43937;41.366;2.072;2023-05-07T06:08:37;100919.84;;;28.11;38.88
56040;BME280;43937;41.366;2.072;2023-05-07T06:11:02;100927.56;;;30.73;34.80
56040;BME280;43937;41.366;2.072;2023-05-07T06:13:28;100928.50;;;33.10;31.42
56040;BME280;43937;41.366;2.072;2023-05-07T06:15:53;100928.34;;;34.06;29.02
56040;BME280;43937;41.366;2.072;2023-05-07T06:18:19;100944.16;;;35.23;27.54
56040;BME280;43937;41.366;2.072;2023-05-07T06:20:45;100932.41;;;34.00;28.61
56040;BME280;43937;41.366;2.072;2023-05-07T06:23:28;100957.69;;;35.35;27.92
56040;BME280;43937;41.366;2.072;2023-05-07T06:25:53;100963.81;;;35.37;28.11
56040;BME280;43937;41.366;2.072;2023-05-07T06:28:19;100964.78;;;35.81;27.82
56040;BME280;43937;41.366;2.072;2023-05-07T06:30:45;100931.59;;;33.63;29.83
56040;BME280;43937;41.366;2.072;2023-05-07T06:33:10;100965.47;;;31.72;33.02
56040;BME280;43937;41.366;2.072;2023-05-07T06:35:36;100960.09;;;28.86;38.10
56040;BME280;43937;41.366;2.072;2023-05-07T06:38:01;100956.94;;;27.65;41.23
56040;BME280;43937;41.366;2.072;2023-05-07T06:40:27;100976.44;;;26.49;44.13
56040;BME280;43937;41.366;2.072;2023-05-07T06:42:53;100952.00;;;25.53;46.82
56040;BME280;43937;41.366;2.072;2023-05-07T06:45:19;100984.28;;;25.49;48.38
56040;BME280;43937;41.366;2.072;2023-05-07T06:47:45;100983.34;;;24.15;52.63
56040;BME280;43937;41.366;2.072;2023-05-07T06:50:10;100958.28;;;23.98;53.54
56040;BME280;43937;41.366;2.072;2023-05-07T06:52:36;100973.13;;;22.95;57.08
56040;BME280;43937;41.366;2.072;2023-05-07T06:56:47;100968.50;;;22.89;57.72
56040;BME280;43937;41.366;2.072;2023-05-07T06:59:12;100996.84;;;23.14;57.91
56040;BME280;43937;41.366;2.072;2023-05-07T07:01:51;101014.59;;;22.90;59.08
56040;BME280;43937;41.366;2.072;2023-05-07T07:04:17;101010.97;;;22.66;60.10
56040;BME280;43937;41.366;2.072;2023-05-07T07:06:42;101012.22;;;22.81;59.91
56040;BME280;43937;41.366;2.072;2023-05-07T07:09:08;101013.72;;;22.54;60.89
56040;BME280;43937;41.366;2.072;2023-05-07T07:11:33;100981.78;;;22.39;61.36
56040;BME280;43937;41.366;2.072;2023-05-07T07:13:59;100994.50;;;22.17;62.96
56040;BME280;43937;41.366;2.072;2023-05-07T07:16:24;100989.66;;;22.12;63.81
56040;BME280;43937;41.366;2.072;2023-05-07T07:18:50;101001.78;;;22.11;64.06
56040;BME280;43937;41.366;2.072;2023-05-07T07:21:16;101010.81;;;22.37;63.38
56040;BME280;43937;41.366;2.072;2023-05-07T07:23:41;101005.06;;;22.74;61.96
56040;BME280;43937;41.366;2.072;2023-05-07T07:26:07;100989.38;;;22.79;61.84
56040;BME280;43937;41.366;2.072;2023-05-07T07:28:32;100995.16;;;22.66;62.48
56040;BME280;43937;41.366;2.072;2023-05-07T07:30:58;100964.84;;;21.87;64.53
56040;BME280;43937;41.366;2.072;2023-05-07T07:33:23;101006.84;;;22.45;63.68
56040;BME280;43937;41.366;2.072;2023-05-07T07:35:48;101010.47;;;22.57;63.29
56040;BME280;43937;41.366;2.072;2023-05-07T07:38:14;101001.09;;;22.70;63.07
56040;BME280;43937;41.366;2.072;2023-05-07T07:40:39;101003.97;;;22.86;62.59
56040;BME280;43937;41.366;2.072;2023-05-07T07:43:05;101013.88;;;25.11;55.59
56040;BME280;43937;41.366;2.072;2023-05-07T07:45:31;101010.13;;;26.75;50.32
56040;BME280;43937;41.366;2.072;2023-05-07T07:47:56;101021.88;;;26.45;50.66
56040;BME280;43937;41.366;2.072;2023-05-07T07:50:22;101011.25;;;26.15;52.19
56040;BME280;43937;41.366;2.072;2023-05-07T07:52:48;101006.06;;;25.52;53.99
56040;BME280;43937;41.366;2.072;2023-05-07T07:55:14;101005.09;;;25.20;55.04
56040;BME280;43937;41.366;2.072;2023-05-07T07:57:43;101007.75;;;25.31;54.25
56040;BME280;43937;41.366;2.072;2023-05-07T08:00:09;100999.59;;;25.25;54.50
56040;BME280;43937;41.366;2.072;2023-05-07T08:02:34;101003.72;;;26.80;50.28
56040;BME280;43937;41.366;2.072;2023-05-07T08:05:00;100991.41;;;29.94;42.44
56040;BME280;43937;41.366;2.072;2023-05-07T08:07:25;101009.34;;;27.22;47.98
56040;BME280;43937;41.366;2.072;2023-05-07T08:09:50;101012.72;;;26.49;50.01
56040;BME280;43937;41.366;2.072;2023-05-07T08:12:16;100993.47;;;28.93;44.28
56040;BME280;43937;41.366;2.072;2023-05-07T08:14:41;100987.72;;;31.25;39.10
56040;BME280;43937;41.366;2.072;2023-05-07T08:17:07;100993.50;;;27.43;46.79
56040;BME280;43937;41.366;2.072;2023-05-07T08:19:34;100990.88;;;25.65;51.58
56040;BME280;43937;41.366;2.072;2023-05-07T08:22:00;100974.72;;;25.01;53.11
56040;BME280;43937;41.366;2.072;2023-05-07T08:24:25;100985.16;;;25.11;54.02
56040;BME280;43937;41.366;2.072;2023-05-07T08:26:51;100996.88;;;28.54;46.36
56040;BME280;43937;41.366;2.072;2023-05-07T08:29:16;101013.66;;;28.54;44.98
56040;BME280;43937;41.366;2.072;2023-05-07T08:31:42;101025.72;;;27.61;47.29
56040;BME280;43937;41.366;2.072;2023-05-07T08:34:07;101039.13;;;27.59;47.07
56040;BME280;43937;41.366;2.072;2023-05-07T08:36:33;101028.25;;;27.57;47.34
56040;BME280;43937;41.366;2.072;2023-05-07T08:38:59;101043.94;;;27.69;47.49
56040;BME280;43937;41.366;2.072;2023-05-07T08:41:25;101041.91;;;27.49;47.63
56040;BME280;43937;41.366;2.072;2023-05-07T08:43:50;101033.88;;;27.73;48.01
56040;BME280;43937;41.366;2.072;2023-05-07T08:46:20;101035.38;;;26.90;48.51
56040;BME280;43937;41.366;2.072;2023-05-07T08:48:50;101047.84;;;26.78;50.21
56040;BME280;43937;41.366;2.072;2023-05-07T08:51:17;101032.44;;;26.70;50.10
56040;BME280;43937;41.366;2.072;2023-05-07T08:53:45;101059.47;;;27.02;49.37
56040;BME280;43937;41.366;2.072;2023-05-07T08:56:11;101058.81;;;27.22;47.88
56040;BME280;43937;41.366;2.072;2023-05-07T08:58:37;101058.69;;;26.74;49.30
56040;BME280;43937;41.366;2.072;2023-05-07T09:01:08;101060.84;;;26.62;50.40
56040;BME280;43937;41.366;2.072;2023-05-07T09:03:34;101074.56;;;27.01;49.81
56040;BME280;43937;41.366;2.072;2023-05-07T09:06:00;101070.31;;;26.93;49.70
56040;BME280;43937;41.366;2.072;2023-05-07T09:08:26;101077.28;;;26.90;49.29
56040;BME280;43937;41.366;2.072;2023-05-07T09:10:53;101077.75;;;27.57;48.59
56040;BME280;43937;41.366;2.072;2023-05-07T09:13:18;101062.31;;;28.22;46.63
56040;BME280;43937;41.366;2.072;2023-05-07T09:15:44;101055.06;;;28.26;46.59
56040;BME280;43937;41.366;2.072;2023-05-07T09:18:10;101049.50;;;28.52;45.06
56040;BME280;43937;41.366;2.072;2023-05-07T09:20:39;101063.50;;;28.47;45.88
56040;BME280;43937;41.366;2.072;2023-05-07T09:23:06;101057.91;;;28.88;44.47
56040;BME280;43937;41.366;2.072;2023-05-07T09:25:32;101067.34;;;29.48;44.39
56040;BME280;43937;41.366;2.072;2023-05-07T09:28:02;101058.44;;;29.20;43.98
56040;BME280;43937;41.366;2.072;2023-05-07T09:30:32;101054.81;;;28.94;43.91
56040;BME280;43937;41.366;2.072;2023-05-07T09:32:58;101071.81;;;29.54;43.54
56040;BME280;43937;41.366;2.072;2023-05-07T09:35:25;101071.00;;;29.43;43.23
56040;BME280;43937;41.366;2.072;2023-05-07T09:37:57;101054.72;;;29.51;42.60
56040;BME280;43937;41.366;2.072;2023-05-07T09:40:28;101062.97;;;28.81;44.38
56040;BME280;43937;41.366;2.072;2023-05-07T09:42:54;101046.69;;;28.88;43.78
56040;BME280;43937;41.366;2.072;2023-05-07T09:45:27;101068.31;;;29.93;42.31
56040;BME280;43937;41.366;2.072;2023-05-07T09:47:57;101069.03;;;30.58;41.24
56040;BME280;43937;41.366;2.072;2023-05-07T09:50:35;101068.97;;;31.27;39.32
56040;BME280;43937;41.366;2.072;2023-05-07T09:53:03;101071.75;;;30.69;39.89
56040;BME280;43937;41.366;2.072;2023-05-07T09:55:29;101068.41;;;30.67;39.63
56040;BME280;43937;41.366;2.072;2023-05-07T09:57:55;101084.66;;;31.38;38.13
56040;BME280;43937;41.366;2.072;2023-05-07T10:00:21;101087.47;;;31.38;38.40
56040;BME280;43937;41.366;2.072;2023-05-07T10:02:49;101086.81;;;31.17;38.70
56040;BME280;43937;41.366;2.072;2023-05-07T10:05:16;101087.47;;;31.38;37.99
56040;BME280;43937;41.366;2.072;2023-05-07T10:07:42;101074.06;;;31.25;37.76
56040;BME280;43937;41.366;2.072;2023-05-07T10:10:09;101071.97;;;31.41;37.80
56040;BME280;43937;41.366;2.072;2023-05-07T10:12:35;101073.41;;;31.33;37.86
56040;BME280;43937;41.366;2.072;2023-05-07T10:15:08;101062.44;;;30.73;38.35
56040;BME280;43937;41.366;2.072;2023-05-07T10:17:36;101061.19;;;30.55;39.49
56040;BME280;43937;41.366;2.072;2023-05-07T10:20:01;101066.63;;;29.92;40.02
56040;BME280;43937;41.366;2.072;2023-05-07T10:22:28;101069.19;;;29.83;39.55
56040;BME280;43937;41.366;2.072;2023-05-07T10:24:59;101063.13;;;30.16;39.71
56040;BME280;43937;41.366;2.072;2023-05-07T10:27:28;101061.50;;;30.88;38.67
56040;BME280;43937;41.366;2.072;2023-05-07T10:32:45;101066.63;;;31.10;38.09
56040;BME280;43937;41.366;2.072;2023-05-07T10:35:32;101049.78;;;30.42;38.98
56040;BME280;43937;41.366;2.072;2023-05-07T10:38:02;101044.28;;;30.61;39.28
56040;BME280;43937;41.366;2.072;2023-05-07T10:40:27;101058.09;;;30.07;40.92
56040;BME280;43937;41.366;2.072;2023-05-07T10:45:20;101055.09;;;28.83;45.90
56040;BME280;43937;41.366;2.072;2023-05-07T10:48:05;101057.31;;;29.21;45.08
56040;BME280;43937;41.366;2.072;2023-05-07T10:50:31;101054.81;;;28.79;45.54
56040;BME280;43937;41.366;2.072;2023-05-07T10:55:48;101049.22;;;29.20;44.36
56040;BME280;43937;41.366;2.072;2023-05-07T11:00:46;101046.84;;;30.12;43.41
56040;BME280;43937;41.366;2.072;2023-05-07T11:03:11;101036.25;;;30.44;41.81
56040;BME280;43937;41.366;2.072;2023-05-07T11:05:37;101008.66;;;29.72;42.98
56040;BME280;43937;41.366;2.072;2023-05-07T11:08:04;101040.38;;;29.57;42.78
56040;BME280;43937;41.366;2.072;2023-05-07T11:11:49;101042.50;;;29.91;43.02
56040;BME280;43937;41.366;2.072;2023-05-07T11:14:53;101041.00;;;29.39;43.77
56040;BME280;43937;41.366;2.072;2023-05-07T11:17:19;101045.81;;;29.98;42.64
56040;BME280;43937;41.366;2.072;2023-05-07T11:19:55;101051.91;;;30.21;42.43
56040;BME280;43937;41.366;2.072;2023-05-07T11:25:04;101046.94;;;31.82;39.11
56040;BME280;43937;41.366;2.072;2023-05-07T11:27:31;101055.59;;;32.10;38.69
56040;BME280;43937;41.366;2.072;2023-05-07T11:29:57;101055.34;;;31.87;38.82
56040;BME280;43937;41.366;2.072;2023-05-07T11:32:24;101047.97;;;32.67;37.96
56040;BME280;43937;41.366;2.072;2023-05-07T11:35:00;101046.34;;;32.99;37.06
56040;BME280;43937;41.366;2.072;2023-05-07T11:37:27;101038.00;;;33.08;36.34
56040;BME280;43937;41.366;2.072;2023-05-07T11:40:04;101048.53;;;32.31;38.21
56040;BME280;43937;41.366;2.072;2023-05-07T11:42:33;101047.81;;;31.35;39.62
56040;BME280;43937;41.366;2.072;2023-05-07T11:44:59;101045.41;;;31.23;39.18
56040;BME280;43937;41.366;2.072;2023-05-07T11:47:25;101033.47;;;31.07;39.98
56040;BME280;43937;41.366;2.072;2023-05-07T11:49:52;101054.84;;;30.74;41.13
56040;BME280;43937;41.366;2.072;2023-05-07T11:52:19;101054.50;;;31.15;39.53
56040;BME280;43937;41.366;2.072;2023-05-07T11:54:52;101052.91;;;31.03;39.69
56040;BME280;43937;41.366;2.072;2023-05-07T11:57:19;101040.34;;;30.96;40.26
56040;BME280;43937;41.366;2.072;2023-05-07T11:59:45;101043.66;;;31.03;39.81
56040;BME280;43937;41.366;2.072;2023-05-07T12:02:14;101044.88;;;31.21;39.25
56040;BME280;43937;41.366;2.072;2023-05-07T12:04:39;101043.97;;;30.28;41.23
56040;BME280;43937;41.366;2.072;2023-05-07T12:07:05;101055.44;;;31.34;40.42
56040;BME280;43937;41.366;2.072;2023-05-07T12:09:33;101062.34;;;31.47;39.13
56040;BME280;43937;41.366;2.072;2023-05-07T12:12:03;101046.19;;;31.77;38.56
56040;BME280;43937;41.366;2.072;2023-05-07T12:14:29;101052.28;;;31.41;39.26
56040;BME280;43937;41.366;2.072;2023-05-07T12:16:55;101037.75;;;30.70;40.29
56040;BME280;43937;41.366;2.072;2023-05-07T12:19:21;101045.69;;;30.29;41.00
56040;BME280;43937;41.366;2.072;2023-05-07T12:21:47;101054.13;;;30.13;41.23
56040;BME280;43937;41.366;2.072;2023-05-07T12:24:14;101049.19;;;30.00;41.51
56040;BME280;43937;41.366;2.072;2023-05-07T12:26:40;101040.91;;;29.70;42.30
56040;BME280;43937;41.366;2.072;2023-05-07T12:29:06;101043.00;;;29.98;41.23
56040;BME280;43937;41.366;2.072;2023-05-07T12:31:32;101022.16;;;29.55;41.81
56040;BME280;43937;41.366;2.072;2023-05-07T12:33:57;101047.75;;;30.03;41.37
56040;BME280;43937;41.366;2.072;2023-05-07T12:36:23;101056.38;;;30.22;40.64
56040;BME280;43937;41.366;2.072;2023-05-07T12:38:51;101056.84;;;30.34;40.43
56040;BME280;43937;41.366;2.072;2023-05-07T12:41:16;101051.44;;;30.82;40.53
56040;BME280;43937;41.366;2.072;2023-05-07T12:43:46;101059.88;;;30.82;39.65
56040;BME280;43937;41.366;2.072;2023-05-07T12:46:12;101015.84;;;30.38;39.78
56040;BME280;43937;41.366;2.072;2023-05-07T12:48:44;101050.56;;;30.03;40.97
56040;BME280;43937;41.366;2.072;2023-05-07T12:51:10;101056.31;;;30.32;39.57
56040;BME280;43937;41.366;2.072;2023-05-07T12:53:42;101033.13;;;29.51;41.14
56040;BME280;43937;41.366;2.072;2023-05-07T12:56:08;101051.75;;;29.11;41.67
56040;BME280;43937;41.366;2.072;2023-05-07T12:58:35;101059.03;;;28.46;42.98
56040;BME280;43937;41.366;2.072;2023-05-07T13:01:06;101068.81;;;28.59;43.08
56040;BME280;43937;41.366;2.072;2023-05-07T13:03:35;101071.06;;;27.68;45.55
56040;BME280;43937;41.366;2.072;2023-05-07T13:06:10;101041.00;;;28.01;43.92
56040;BME280;43937;41.366;2.072;2023-05-07T13:08:39;101085.13;;;27.78;44.83
56040;BME280;43937;41.366;2.072;2023-05-07T13:11:13;101058.09;;;27.47;45.79